sensor_id;sensor_type;location;lat;lon;timestamp;temperature;humidity
1766;DHT22;880;52.452;8.656;2023-11-22T00:01:18;4.70;99.90
1766;DHT22;880;52.452;8.656;2023-11-22T00:03:45;4.70;99.90
1766;DHT22;880;52.452;8.656;2023-11-22T00:06:12;4.70;99.90
1766;DHT22;880;52.452;8.656;2023-11-22T00:08:39;4.70;99.90
1766;DHT22;880;52.452;8.656;2023-11-22T00:11:06;4.70;99.90
1766;DHT22;880;52.452;8.656;2023-11-22T00:13:33;4.70;99.90
1766;DHT22;880;52.452;8.656;2023-11-22T00:16:00;4.70;99.90
1766;DHT22;880;52.452;8.656;2023-11-22T00:18:27;4.70;99.90
1766;DHT22;880;52.452;8.656;2023-11-22T00:20:54;4.60;99.90
1766;DHT22;880;52.452;8.656;2023-11-22T00:23:22;4.60;99.90
1766;DHT22;880;52.452;8.656;2023-11-22T00:25:54;4.60;99.90
1766;DHT22;880;52.452;8.656;2023-11-22T00:28:21;4.60;99.90
1766;DHT22;880;52.452;8.656;2023-11-22T00:30:49;4.60;99.90
1766;DHT22;880;52.452;8.656;2023-11-22T00:33:16;4.60;99.90
1766;DHT22;880;52.452;8.656;2023-11-22T00:35:46;4.60;99.90
1766;DHT22;880;52.452;8.656;2023-11-22T00:38:13;4.50;99.90
1766;DHT22;880;52.452;8.656;2023-11-22T00:40:40;4.60;99.90
1766;DHT22;880;52.452;8.656;2023-11-22T00:43:07;4.60;99.90
1766;DHT22;880;52.452;8.656;2023-11-22T00:45:34;4.60;99.90
1766;DHT22;880;52.452;8.656;2023-11-22T00:48:01;4.50;99.90
1766;DHT22;880;52.452;8.656;2023-11-22T00:50:28;4.50;99.90
1766;DHT22;880;52.452;8.656;2023-11-22T00:52:55;4.50;99.90
1766;DHT22;880;52.452;8.656;2023-11-22T00:55:22;4.50;99.90
1766;DHT22;880;52.452;8.656;2023-11-22T00:57:50;4.50;99.90
1766;DHT22;880;52.452;8.656;2023-11-22T01:00:17;4.50;99.90
1766;DHT22;880;52.452;8.656;2023-11-22T01:02:44;4.50;99.90
1766;DHT22;880;52.452;8.656;2023-11-22T01:05:11;4.50;99.90
1766;DHT22;880;52.452;8.656;2023-11-22T01:07:39;4.40;99.90
1766;DHT22;880;52.452;8.656;2023-11-22T01:10:07;4.40;99.90
1766;DHT22;880;52.452;8.656;2023-11-22T01:12:34;4.40;99.90
1766;DHT22;880;52.452;8.656;2023-11-22T01:15:02;4.40;99.90
1766;DHT22;880;52.452;8.656;2023-11-22T01:17:29;4.30;99.90
1766;DHT22;880;52.452;8.656;2023-11-22T01:20:01;4.20;99.90
1766;DHT22;880;52.452;8.656;2023-11-22T01:22:30;4.20;99.90
1766;DHT22;880;52.452;8.656;2023-11-22T01:24:58;4.20;99.90
1766;DHT22;880;52.452;8.656;2023-11-22T01:27:25;4.20;99.90
1766;DHT22;880;52.452;8.656;2023-11-22T01:29:52;4.10;99.90
1766;DHT22;880;52.452;8.656;2023-11-22T01:32:21;4.10;99.90
1766;DHT22;880;52.452;8.656;2023-11-22T01:34:48;4.10;99.90
1766;DHT22;880;52.452;8.656;2023-11-22T01:37:15;4.10;99.90
1766;DHT22;880;52.452;8.656;2023-11-22T01:39:42;4.10;99.90
1766;DHT22;880;52.452;8.656;2023-11-22T01:42:09;4.00;99.90
1766;DHT22;880;52.452;8.656;2023-11-22T01:44:36;4.00;99.90
1766;DHT22;880;52.452;8.656;2023-11-22T01:47:04;4.00;99.90
1766;DHT22;880;52.452;8.656;2023-11-22T01:49:32;3.90;99.90
1766;DHT22;880;52.452;8.656;2023-11-22T01:52:00;3.90;99.90
1766;DHT22;880;52.452;8.656;2023-11-22T01:54:28;3.90;99.90
1766;DHT22;880;52.452;8.656;2023-11-22T01:56:56;3.80;99.90
1766;DHT22;880;52.452;8.656;2023-11-22T01:59:24;3.80;99.90
1766;DHT22;880;52.452;8.656;2023-11-22T02:01:56;3.80;99.90
1766;DHT22;880;52.452;8.656;2023-11-22T02:04:23;3.70;99.90
1766;DHT22;880;52.452;8.656;2023-11-22T02:06:51;3.70;99.90
1766;DHT22;880;52.452;8.656;2023-11-22T02:09:18;3.70;99.90
1766;DHT22;880;52.452;8.656;2023-11-22T02:11:46;3.70;99.90
1766;DHT22;880;52.452;8.656;2023-11-22T02:14:15;3.60;99.90
1766;DHT22;880;52.452;8.656;2023-11-22T02:16:42;3.60;99.90
1766;DHT22;880;52.452;8.656;2023-11-22T02:19:17;3.60;99.90
1766;DHT22;880;52.452;8.656;2023-11-22T02:21:44;3.60;99.90
1766;DHT22;880;52.452;8.656;2023-11-22T02:24:12;3.60;99.90
1766;DHT22;880;52.452;8.656;2023-11-22T02:26:44;3.60;99.90
1766;DHT22;880;52.452;8.656;2023-11-22T02:29:13;3.60;99.90
1766;DHT22;880;52.452;8.656;2023-11-22T02:31:43;3.50;99.90
1766;DHT22;880;52.452;8.656;2023-11-22T02:34:10;3.50;99.90
1766;DHT22;880;52.452;8.656;2023-11-22T02:36:37;3.40;99.90
1766;DHT22;880;52.452;8.656;2023-11-22T02:39:04;3.40;99.90
1766;DHT22;880;52.452;8.656;2023-11-22T02:41:31;3.40;99.90
1766;DHT22;880;52.452;8.656;2023-11-22T02:43:59;3.30;99.90
1766;DHT22;880;52.452;8.656;2023-11-22T02:46:26;3.30;99.90
1766;DHT22;880;52.452;8.656;2023-11-22T02:48:53;3.30;99.90
1766;DHT22;880;52.452;8.656;2023-11-22T02:51:20;3.30;99.90
1766;DHT22;880;52.452;8.656;2023-11-22T02:53:49;3.30;99.90
1766;DHT22;880;52.452;8.656;2023-11-22T02:56:16;3.30;99.90
1766;DHT22;880;52.452;8.656;2023-11-22T02:58:44;3.30;99.90
1766;DHT22;880;52.452;8.656;2023-11-22T03:01:11;3.20;99.90
1766;DHT22;880;52.452;8.656;2023-11-22T03:03:38;3.30;99.90
1766;DHT22;880;52.452;8.656;2023-11-22T03:06:06;3.20;99.90
1766;DHT22;880;52.452;8.656;2023-11-22T03:08:33;3.10;99.90
1766;DHT22;880;52.452;8.656;2023-11-22T03:11:19;3.10;99.90
1766;DHT22;880;52.452;8.656;2023-11-22T03:13:47;3.10;99.90
1766;DHT22;880;52.452;8.656;2023-11-22T03:16:15;3.00;99.90
1766;DHT22;880;52.452;8.656;2023-11-22T03:18:42;3.00;99.90
1766;DHT22;880;52.452;8.656;2023-11-22T03:21:09;3.00;99.90
1766;DHT22;880;52.452;8.656;2023-11-22T03:23:37;3.00;99.90
1766;DHT22;880;52.452;8.656;2023-11-22T03:26:04;3.00;99.90
1766;DHT22;880;52.452;8.656;2023-11-22T03:28:31;3.00;99.90
1766;DHT22;880;52.452;8.656;2023-11-22T03:31:00;3.00;99.90
1766;DHT22;880;52.452;8.656;2023-11-22T03:33:28;3.00;99.90
1766;DHT22;880;52.452;8.656;2023-11-22T03:35:55;3.00;99.90
1766;DHT22;880;52.452;8.656;2023-11-22T03:38:22;3.00;99.90
1766;DHT22;880;52.452;8.656;2023-11-22T03:40:50;2.90;99.90
1766;DHT22;880;52.452;8.656;2023-11-22T03:43:17;2.90;99.90
1766;DHT22;880;52.452;8.656;2023-11-22T03:45:45;2.90;99.90
1766;DHT22;880;52.452;8.656;2023-11-22T03:48:12;2.90;99.90
1766;DHT22;880;52.452;8.656;2023-11-22T03:50:40;3.00;99.90
1766;DHT22;880;52.452;8.656;2023-11-22T03:53:07;2.90;99.90
1766;DHT22;880;52.452;8.656;2023-11-22T03:55:34;2.90;99.90
1766;DHT22;880;52.452;8.656;2023-11-22T03:58:01;2.90;99.90
1766;DHT22;880;52.452;8.656;2023-11-22T04:00:28;2.90;99.90
1766;DHT22;880;52.452;8.656;2023-11-22T04:02:55;2.90;99.90
1766;DHT22;880;52.452;8.656;2023-11-22T04:05:26;2.90;99.90
1766;DHT22;880;52.452;8.656;2023-11-22T04:07:53;2.90;99.90
1766;DHT22;880;52.452;8.656;2023-11-22T04:10:21;2.90;99.90
1766;DHT22;880;52.452;8.656;2023-11-22T04:12:49;2.70;99.90
1766;DHT22;880;52.452;8.656;2023-11-22T04:15:16;2.60;99.90
1766;DHT22;880;52.452;8.656;2023-11-22T04:17:43;2.60;99.90
1766;DHT22;880;52.452;8.656;2023-11-22T04:20:11;2.60;99.90
1766;DHT22;880;52.452;8.656;2023-11-22T04:22:44;2.60;99.90
1766;DHT22;880;52.452;8.656;2023-11-22T04:25:14;2.60;99.90
1766;DHT22;880;52.452;8.656;2023-11-22T04:27:41;2.50;99.90
1766;DHT22;880;52.452;8.656;2023-11-22T04:30:09;2.40;99.90
1766;DHT22;880;52.452;8.656;2023-11-22T04:32:41;2.30;99.90
1766;DHT22;880;52.452;8.656;2023-11-22T04:35:09;2.20;99.90
1766;DHT22;880;52.452;8.656;2023-11-22T04:37:36;2.20;99.90
1766;DHT22;880;52.452;8.656;2023-11-22T04:40:04;2.30;99.90
1766;DHT22;880;52.452;8.656;2023-11-22T04:42:35;2.30;99.90
1766;DHT22;880;52.452;8.656;2023-11-22T04:45:04;2.30;99.90
1766;DHT22;880;52.452;8.656;2023-11-22T04:47:33;2.30;99.90
1766;DHT22;880;52.452;8.656;2023-11-22T04:50:00;2.30;99.90
1766;DHT22;880;52.452;8.656;2023-11-22T04:52:28;2.30;99.90
1766;DHT22;880;52.452;8.656;2023-11-22T04:54:58;2.30;99.90
1766;DHT22;880;52.452;8.656;2023-11-22T04:57:26;2.20;99.90
1766;DHT22;880;52.452;8.656;2023-11-22T04:59:53;2.00;99.90
1766;DHT22;880;52.452;8.656;2023-11-22T05:02:20;2.00;99.90
1766;DHT22;880;52.452;8.656;2023-11-22T05:04:47;2.00;99.90
1766;DHT22;880;52.452;8.656;2023-11-22T05:07:15;2.00;99.90
1766;DHT22;880;52.452;8.656;2023-11-22T05:09:43;2.00;99.90
1766;DHT22;880;52.452;8.656;2023-11-22T05:12:13;1.90;99.90
1766;DHT22;880;52.452;8.656;2023-11-22T05:14:41;1.90;99.90
1766;DHT22;880;52.452;8.656;2023-11-22T05:17:10;1.70;99.90
1766;DHT22;880;52.452;8.656;2023-11-22T05:19:37;1.70;99.90
1766;DHT22;880;52.452;8.656;2023-11-22T05:22:04;1.50;99.90
1766;DHT22;880;52.452;8.656;2023-11-22T05:24:33;1.60;99.90
1766;DHT22;880;52.452;8.656;2023-11-22T05:27:01;1.60;99.90
1766;DHT22;880;52.452;8.656;2023-11-22T05:29:28;1.70;99.90
1766;DHT22;880;52.452;8.656;2023-11-22T05:32:06;1.80;99.90
1766;DHT22;880;52.452;8.656;2023-11-22T05:34:33;1.70;99.90
1766;DHT22;880;52.452;8.656;2023-11-22T05:37:01;1.50;99.90
1766;DHT22;880;52.452;8.656;2023-11-22T05:39:28;1.40;99.90
1766;DHT22;880;52.452;8.656;2023-11-22T05:41:55;1.50;99.90
1766;DHT22;880;52.452;8.656;2023-11-22T05:44:23;1.50;99.90
1766;DHT22;880;52.452;8.656;2023-11-22T05:46:52;1.50;99.90
1766;DHT22;880;52.452;8.656;2023-11-22T05:49:20;1.60;99.90
1766;DHT22;880;52.452;8.656;2023-11-22T05:51:48;1.70;99.90
1766;DHT22;880;52.452;8.656;2023-11-22T05:54:15;1.70;99.90
1766;DHT22;880;52.452;8.656;2023-11-22T05:56:43;1.60;99.90
1766;DHT22;880;52.452;8.656;2023-11-22T05:59:10;1.60;99.90
1766;DHT22;880;52.452;8.656;2023-11-22T06:01:37;1.60;99.90
1766;DHT22;880;52.452;8.656;2023-11-22T06:04:04;1.60;99.90
1766;DHT22;880;52.452;8.656;2023-11-22T06:06:31;1.60;99.90
1766;DHT22;880;52.452;8.656;2023-11-22T06:08:59;1.50;99.90
1766;DHT22;880;52.452;8.656;2023-11-22T06:11:26;1.60;99.90
1766;DHT22;880;52.452;8.656;2023-11-22T06:13:53;1.50;99.90
1766;DHT22;880;52.452;8.656;2023-11-22T06:16:22;1.40;99.90
1766;DHT22;880;52.452;8.656;2023-11-22T06:18:49;1.40;99.90
1766;DHT22;880;52.452;8.656;2023-11-22T06:21:16;1.30;99.90
1766;DHT22;880;52.452;8.656;2023-11-22T06:23:43;1.30;99.90
1766;DHT22;880;52.452;8.656;2023-11-22T06:26:11;1.30;99.90
1766;DHT22;880;52.452;8.656;2023-11-22T06:28:38;1.30;99.90
1766;DHT22;880;52.452;8.656;2023-11-22T06:31:05;1.30;99.90
1766;DHT22;880;52.452;8.656;2023-11-22T06:33:31;1.20;99.90
1766;DHT22;880;52.452;8.656;2023-11-22T06:35:59;1.20;99.90
1766;DHT22;880;52.452;8.656;2023-11-22T06:38:26;1.20;99.90
1766;DHT22;880;52.452;8.656;2023-11-22T06:40:53;1.10;99.90
1766;DHT22;880;52.452;8.656;2023-11-22T06:43:20;1.00;99.90
1766;DHT22;880;52.452;8.656;2023-11-22T06:45:47;0.90;99.90
1766;DHT22;880;52.452;8.656;2023-11-22T06:48:14;0.90;99.90
1766;DHT22;880;52.452;8.656;2023-11-22T06:50:42;0.90;99.90
1766;DHT22;880;52.452;8.656;2023-11-22T06:53:11;0.90;99.90
1766;DHT22;880;52.452;8.656;2023-11-22T06:55:39;0.90;99.90
1766;DHT22;880;52.452;8.656;2023-11-22T06:58:06;0.90;99.90
1766;DHT22;880;52.452;8.656;2023-11-22T07:00:35;0.90;99.90
1766;DHT22;880;52.452;8.656;2023-11-22T07:03:02;1.00;99.90
1766;DHT22;880;52.452;8.656;2023-11-22T07:05:29;1.00;99.90
1766;DHT22;880;52.452;8.656;2023-11-22T07:07:57;1.00;99.90
1766;DHT22;880;52.452;8.656;2023-11-22T07:10:25;1.00;99.90
1766;DHT22;880;52.452;8.656;2023-11-22T07:12:53;0.90;99.90
1766;DHT22;880;52.452;8.656;2023-11-22T07:15:20;0.80;99.90
1766;DHT22;880;52.452;8.656;2023-11-22T07:17:49;0.70;99.90
1766;DHT22;880;52.452;8.656;2023-11-22T07:20:16;0.60;99.90
1766;DHT22;880;52.452;8.656;2023-11-22T07:22:44;0.60;99.90
1766;DHT22;880;52.452;8.656;2023-11-22T07:25:11;0.70;99.90
1766;DHT22;880;52.452;8.656;2023-11-22T07:27:47;0.70;99.90
1766;DHT22;880;52.452;8.656;2023-11-22T07:30:15;0.70;99.90
1766;DHT22;880;52.452;8.656;2023-11-22T07:32:42;0.70;99.90
1766;DHT22;880;52.452;8.656;2023-11-22T07:35:11;0.80;99.90
1766;DHT22;880;52.452;8.656;2023-11-22T07:37:38;0.80;99.90
1766;DHT22;880;52.452;8.656;2023-11-22T07:40:08;0.80;99.90
1766;DHT22;880;52.452;8.656;2023-11-22T07:42:36;0.80;99.90
1766;DHT22;880;52.452;8.656;2023-11-22T07:45:05;0.70;99.90
1766;DHT22;880;52.452;8.656;2023-11-22T07:47:32;0.70;99.90
1766;DHT22;880;52.452;8.656;2023-11-22T07:50:00;0.80;99.90
1766;DHT22;880;52.452;8.656;2023-11-22T07:52:28;0.80;99.90
1766;DHT22;880;52.452;8.656;2023-11-22T07:54:56;0.70;99.90
1766;DHT22;880;52.452;8.656;2023-11-22T07:57:23;0.70;99.90
1766;DHT22;880;52.452;8.656;2023-11-22T07:59:51;0.80;99.90
1766;DHT22;880;52.452;8.656;2023-11-22T08:02:23;0.90;99.90
1766;DHT22;880;52.452;8.656;2023-11-22T08:04:50;1.00;99.90
1766;DHT22;880;52.452;8.656;2023-11-22T08:07:19;1.10;99.90
1766;DHT22;880;52.452;8.656;2023-11-22T08:09:48;1.20;99.90
1766;DHT22;880;52.452;8.656;2023-11-22T08:12:15;1.30;99.90
1766;DHT22;880;52.452;8.656;2023-11-22T08:14:42;1.30;99.90
1766;DHT22;880;52.452;8.656;2023-11-22T08:17:11;1.30;99.90
1766;DHT22;880;52.452;8.656;2023-11-22T08:19:40;1.40;99.90
1766;DHT22;880;52.452;8.656;2023-11-22T08:22:08;1.40;99.90
1766;DHT22;880;52.452;8.656;2023-11-22T08:29:06;1.20;99.90
1766;DHT22;880;52.452;8.656;2023-11-22T08:31:34;1.40;99.90
1766;DHT22;880;52.452;8.656;2023-11-22T08:34:03;1.40;99.90
1766;DHT22;880;52.452;8.656;2023-11-22T08:36:33;1.50;99.90
1766;DHT22;880;52.452;8.656;2023-11-22T08:39:03;1.60;99.90
1766;DHT22;880;52.452;8.656;2023-11-22T08:41:31;1.70;99.90
1766;DHT22;880;52.452;8.656;2023-11-22T08:43:59;1.80;99.90
1766;DHT22;880;52.452;8.656;2023-11-22T08:46:27;1.90;99.90
1766;DHT22;880;52.452;8.656;2023-11-22T08:48:56;2.00;99.90
1766;DHT22;880;52.452;8.656;2023-11-22T08:51:23;2.00;99.90
1766;DHT22;880;52.452;8.656;2023-11-22T08:53:50;2.10;99.90
1766;DHT22;880;52.452;8.656;2023-11-22T08:56:18;2.00;99.90
1766;DHT22;880;52.452;8.656;2023-11-22T08:58:46;1.90;99.90
1766;DHT22;880;52.452;8.656;2023-11-22T09:01:13;1.90;99.90
1766;DHT22;880;52.452;8.656;2023-11-22T09:03:41;1.90;99.90
1766;DHT22;880;52.452;8.656;2023-11-22T09:06:10;1.80;99.90
1766;DHT22;880;52.452;8.656;2023-11-22T09:08:37;1.80;99.90
1766;DHT22;880;52.452;8.656;2023-11-22T09:11:04;1.80;99.90
1766;DHT22;880;52.452;8.656;2023-11-22T09:13:34;1.90;99.90
1766;DHT22;880;52.452;8.656;2023-11-22T09:16:02;1.90;99.90
1766;DHT22;880;52.452;8.656;2023-11-22T09:18:31;1.80;99.90
1766;DHT22;880;52.452;8.656;2023-11-22T09:20:59;1.80;99.90
1766;DHT22;880;52.452;8.656;2023-11-22T09:23:26;1.90;99.90
1766;DHT22;880;52.452;8.656;2023-11-22T09:25:54;2.00;99.90
1766;DHT22;880;52.452;8.656;2023-11-22T09:28:21;2.10;99.90
1766;DHT22;880;52.452;8.656;2023-11-22T09:30:49;2.20;99.90
1766;DHT22;880;52.452;8.656;2023-11-22T09:33:16;2.30;99.90
1766;DHT22;880;52.452;8.656;2023-11-22T09:35:46;2.30;99.90
1766;DHT22;880;52.452;8.656;2023-11-22T09:38:14;2.30;99.90
1766;DHT22;880;52.452;8.656;2023-11-22T09:40:48;2.20;99.90
1766;DHT22;880;52.452;8.656;2023-11-22T09:43:17;2.30;99.90
1766;DHT22;880;52.452;8.656;2023-11-22T09:45:50;2.20;99.90
1766;DHT22;880;52.452;8.656;2023-11-22T09:48:23;2.30;99.90
1766;DHT22;880;52.452;8.656;2023-11-22T09:53:52;2.10;99.90
1766;DHT22;880;52.452;8.656;2023-11-22T09:56:24;2.00;99.90
1766;DHT22;880;52.452;8.656;2023-11-22T09:58:53;1.90;99.90
1766;DHT22;880;52.452;8.656;2023-11-22T10:01:23;1.90;99.90
1766;DHT22;880;52.452;8.656;2023-11-22T10:03:50;1.90;99.90
1766;DHT22;880;52.452;8.656;2023-11-22T10:06:17;1.90;99.90
1766;DHT22;880;52.452;8.656;2023-11-22T10:08:45;2.00;99.90
1766;DHT22;880;52.452;8.656;2023-11-22T10:11:17;2.00;99.90
1766;DHT22;880;52.452;8.656;2023-11-22T10:13:51;2.10;99.90
1766;DHT22;880;52.452;8.656;2023-11-22T10:16:18;2.20;99.90
1766;DHT22;880;52.452;8.656;2023-11-22T10:18:47;2.30;99.90
1766;DHT22;880;52.452;8.656;2023-11-22T10:21:28;2.40;99.90
1766;DHT22;880;52.452;8.656;2023-11-22T10:24:03;2.60;99.90
1766;DHT22;880;52.452;8.656;2023-11-22T10:26:31;2.70;99.90
1766;DHT22;880;52.452;8.656;2023-11-22T10:28:58;2.80;99.90
1766;DHT22;880;52.452;8.656;2023-11-22T10:31:26;3.00;99.90
1766;DHT22;880;52.452;8.656;2023-11-22T10:33:53;3.10;99.90
1766;DHT22;880;52.452;8.656;2023-11-22T10:36:24;3.20;99.90
1766;DHT22;880;52.452;8.656;2023-11-22T10:38:51;3.30;99.90
1766;DHT22;880;52.452;8.656;2023-11-22T10:41:20;3.40;99.90
1766;DHT22;880;52.452;8.656;2023-11-22T10:43:47;3.40;99.90
1766;DHT22;880;52.452;8.656;2023-11-22T10:46:16;3.50;99.90
1766;DHT22;880;52.452;8.656;2023-11-22T10:48:44;3.50;99.90
1766;DHT22;880;52.452;8.656;2023-11-22T10:51:13;3.50;99.90
1766;DHT22;880;52.452;8.656;2023-11-22T10:53:48;3.60;99.90
1766;DHT22;880;52.452;8.656;2023-11-22T10:56:19;3.60;99.90
1766;DHT22;880;52.452;8.656;2023-11-22T10:58:55;3.70;99.90
1766;DHT22;880;52.452;8.656;2023-11-22T11:01:25;3.70;99.90
1766;DHT22;880;52.452;8.656;2023-11-22T11:03:56;3.70;99.90
1766;DHT22;880;52.452;8.656;2023-11-22T11:06:27;3.80;99.90
1766;DHT22;880;52.452;8.656;2023-11-22T11:09:01;3.90;99.90
1766;DHT22;880;52.452;8.656;2023-11-22T11:11:36;4.00;99.90
1766;DHT22;880;52.452;8.656;2023-11-22T11:14:05;4.10;99.90
1766;DHT22;880;52.452;8.656;2023-11-22T11:16:38;4.10;99.90
1766;DHT22;880;52.452;8.656;2023-11-22T11:19:08;4.20;99.90
1766;DHT22;880;52.452;8.656;2023-11-22T11:21:39;4.20;99.90
1766;DHT22;880;52.452;8.656;2023-11-22T11:24:06;4.30;99.90
1766;DHT22;880;52.452;8.656;2023-11-22T11:26:34;4.40;99.90
1766;DHT22;880;52.452;8.656;2023-11-22T11:29:02;4.50;99.90
1766;DHT22;880;52.452;8.656;2023-11-22T11:31:39;4.60;99.90
1766;DHT22;880;52.452;8.656;2023-11-22T11:34:08;4.60;99.90
1766;DHT22;880;52.452;8.656;2023-11-22T11:36:37;4.70;99.90
1766;DHT22;880;52.452;8.656;2023-11-22T11:39:07;4.70;99.90
1766;DHT22;880;52.452;8.656;2023-11-22T11:41:38;4.80;99.90
1766;DHT22;880;52.452;8.656;2023-11-22T11:44:09;4.90;99.90
1766;DHT22;880;52.452;8.656;2023-11-22T11:46:39;5.10;99.90
1766;DHT22;880;52.452;8.656;2023-11-22T11:49:12;5.20;99.90
1766;DHT22;880;52.452;8.656;2023-11-22T11:51:40;5.40;99.90
1766;DHT22;880;52.452;8.656;2023-11-22T11:54:09;5.50;99.90
1766;DHT22;880;52.452;8.656;2023-11-22T11:56:39;5.60;99.90
1766;DHT22;880;52.452;8.656;2023-11-22T11:59:08;5.60;99.90
1766;DHT22;880;52.452;8.656;2023-11-22T12:01:36;5.70;99.90
1766;DHT22;880;52.452;8.656;2023-11-22T12:04:03;5.70;99.90
1766;DHT22;880;52.452;8.656;2023-11-22T12:06:31;5.80;99.90
1766;DHT22;880;52.452;8.656;2023-11-22T12:09:03;5.90;99.90
1766;DHT22;880;52.452;8.656;2023-11-22T12:11:30;5.80;99.90
1766;DHT22;880;52.452;8.656;2023-11-22T12:13:58;5.70;99.90
1766;DHT22;880;52.452;8.656;2023-11-22T12:16:25;5.80;99.90
1766;DHT22;880;52.452;8.656;2023-11-22T12:18:55;5.80;99.90
1766;DHT22;880;52.452;8.656;2023-11-22T12:21:24;5.80;99.90
1766;DHT22;880;52.452;8.656;2023-11-22T12:23:54;5.80;99.90
1766;DHT22;880;52.452;8.656;2023-11-22T12:26:21;5.90;99.90
1766;DHT22;880;52.452;8.656;2023-11-22T12:28:49;5.80;99.90
1766;DHT22;880;52.452;8.656;2023-11-22T12:31:31;5.80;99.90
1766;DHT22;880;52.452;8.656;2023-11-22T12:34:03;5.70;99.90
1766;DHT22;880;52.452;8.656;2023-11-22T12:36:33;5.80;99.90
1766;DHT22;880;52.452;8.656;2023-11-22T12:39:00;5.90;99.90
1766;DHT22;880;52.452;8.656;2023-11-22T12:41:30;5.90;99.90
1766;DHT22;880;52.452;8.656;2023-11-22T12:44:06;6.00;99.90
1766;DHT22;880;52.452;8.656;2023-11-22T12:46:53;6.00;99.90
1766;DHT22;880;52.452;8.656;2023-11-22T12:49:25;6.00;99.90
1766;DHT22;880;52.452;8.656;2023-11-22T12:51:56;6.00;99.90
1766;DHT22;880;52.452;8.656;2023-11-22T12:54:26;6.00;99.90
1766;DHT22;880;52.452;8.656;2023-11-22T12:56:53;6.10;99.90
1766;DHT22;880;52.452;8.656;2023-11-22T12:59:25;6.10;99.90
1766;DHT22;880;52.452;8.656;2023-11-22T13:01:54;6.10;99.90
1766;DHT22;880;52.452;8.656;2023-11-22T13:04:22;6.10;99.90
1766;DHT22;880;52.452;8.656;2023-11-22T13:06:49;6.10;99.90
1766;DHT22;880;52.452;8.656;2023-11-22T13:09:17;6.00;99.90
1766;DHT22;880;52.452;8.656;2023-11-22T13:11:44;5.80;99.90
1766;DHT22;880;52.452;8.656;2023-11-22T13:14:12;5.70;99.90
1766;DHT22;880;52.452;8.656;2023-11-22T13:16:41;5.70;99.90
1766;DHT22;880;52.452;8.656;2023-11-22T13:19:09;5.70;99.90
1766;DHT22;880;52.452;8.656;2023-11-22T13:21:36;5.70;99.90
1766;DHT22;880;52.452;8.656;2023-11-22T13:24:04;5.70;99.90
1766;DHT22;880;52.452;8.656;2023-11-22T13:26:33;5.50;99.90
1766;DHT22;880;52.452;8.656;2023-11-22T13:29:03;5.40;99.90
1766;DHT22;880;52.452;8.656;2023-11-22T13:31:30;5.20;99.90
1766;DHT22;880;52.452;8.656;2023-11-22T13:33:57;5.10;99.90
1766;DHT22;880;52.452;8.656;2023-11-22T13:36:23;5.20;99.90
1766;DHT22;880;52.452;8.656;2023-11-22T13:38:50;5.20;99.90
1766;DHT22;880;52.452;8.656;2023-11-22T13:41:18;5.20;99.90
1766;DHT22;880;52.452;8.656;2023-11-22T13:43:45;5.20;99.90
1766;DHT22;880;52.452;8.656;2023-11-22T13:46:14;5.20;99.90
1766;DHT22;880;52.452;8.656;2023-11-22T13:48:42;5.30;99.90
1766;DHT22;880;52.452;8.656;2023-11-22T13:51:09;5.20;99.90
1766;DHT22;880;52.452;8.656;2023-11-22T13:53:37;5.20;99.90
1766;DHT22;880;52.452;8.656;2023-11-22T13:56:10;5.20;99.90
1766;DHT22;880;52.452;8.656;2023-11-22T13:58:39;5.20;99.90
1766;DHT22;880;52.452;8.656;2023-11-22T14:01:06;5.20;99.90
1766;DHT22;880;52.452;8.656;2023-11-22T14:03:38;5.20;99.90
1766;DHT22;880;52.452;8.656;2023-11-22T14:06:06;5.30;99.90
1766;DHT22;880;52.452;8.656;2023-11-22T14:08:33;5.30;99.90
1766;DHT22;880;52.452;8.656;2023-11-22T14:11:00;5.30;99.90
1766;DHT22;880;52.452;8.656;2023-11-22T14:13:27;5.30;99.90
1766;DHT22;880;52.452;8.656;2023-11-22T14:15:54;5.20;99.90
1766;DHT22;880;52.452;8.656;2023-11-22T14:18:21;5.20;99.90
1766;DHT22;880;52.452;8.656;2023-11-22T14:20:48;5.20;99.90
1766;DHT22;880;52.452;8.656;2023-11-22T14:23:15;5.20;99.90
1766;DHT22;880;52.452;8.656;2023-11-22T14:25:44;5.30;99.90
1766;DHT22;880;52.452;8.656;2023-11-22T14:28:11;5.30;99.90
1766;DHT22;880;52.452;8.656;2023-11-22T14:30:40;5.20;99.90
1766;DHT22;880;52.452;8.656;2023-11-22T14:33:08;5.10;99.90
1766;DHT22;880;52.452;8.656;2023-11-22T14:35:36;5.10;99.90
1766;DHT22;880;52.452;8.656;2023-11-22T14:38:03;5.10;99.90
1766;DHT22;880;52.452;8.656;2023-11-22T14:40:32;5.00;99.90
1766;DHT22;880;52.452;8.656;2023-11-22T14:42:59;5.00;99.90
1766;DHT22;880;52.452;8.656;2023-11-22T14:45:29;5.00;99.90
1766;DHT22;880;52.452;8.656;2023-11-22T14:47:57;5.00;99.90
1766;DHT22;880;52.452;8.656;2023-11-22T14:50:25;5.00;99.90
1766;DHT22;880;52.452;8.656;2023-11-22T14:52:54;5.00;99.90
1766;DHT22;880;52.452;8.656;2023-11-22T14:55:21;5.00;99.90
1766;DHT22;880;52.452;8.656;2023-11-22T14:57:53;5.00;99.90
1766;DHT22;880;52.452;8.656;2023-11-22T15:00:25;5.00;99.90
1766;DHT22;880;52.452;8.656;2023-11-22T15:02:52;5.00;99.90
1766;DHT22;880;52.452;8.656;2023-11-22T15:05:22;5.00;99.90
1766;DHT22;880;52.452;8.656;2023-11-22T15:07:50;5.00;99.90
1766;DHT22;880;52.452;8.656;2023-11-22T15:10:23;4.90;99.90
1766;DHT22;880;52.452;8.656;2023-11-22T15:12:52;4.90;99.90
1766;DHT22;880;52.452;8.656;2023-11-22T15:15:20;4.80;99.90
1766;DHT22;880;52.452;8.656;2023-11-22T15:17:51;4.80;99.90
1766;DHT22;880;52.452;8.656;2023-11-22T15:20:18;4.80;99.90
1766;DHT22;880;52.452;8.656;2023-11-22T15:22:45;4.80;99.90
1766;DHT22;880;52.452;8.656;2023-11-22T15:25:12;4.70;99.90
1766;DHT22;880;52.452;8.656;2023-11-22T15:27:42;4.70;99.90
1766;DHT22;880;52.452;8.656;2023-11-22T15:30:09;4.70;99.90
1766;DHT22;880;52.452;8.656;2023-11-22T15:32:39;4.70;99.90
1766;DHT22;880;52.452;8.656;2023-11-22T15:35:06;4.70;99.90
1766;DHT22;880;52.452;8.656;2023-11-22T15:37:34;4.70;99.90
1766;DHT22;880;52.452;8.656;2023-11-22T15:40:02;4.60;99.90
1766;DHT22;880;52.452;8.656;2023-11-22T15:42:29;4.60;99.90
1766;DHT22;880;52.452;8.656;2023-11-22T15:44:56;4.60;99.90
1766;DHT22;880;52.452;8.656;2023-11-22T15:47:23;4.60;99.90
1766;DHT22;880;52.452;8.656;2023-11-22T15:49:51;4.70;99.90
1766;DHT22;880;52.452;8.656;2023-11-22T15:52:21;4.70;99.90
1766;DHT22;880;52.452;8.656;2023-11-22T15:54:49;4.70;99.90
1766;DHT22;880;52.452;8.656;2023-11-22T15:57:16;4.70;99.90
1766;DHT22;880;52.452;8.656;2023-11-22T15:59:43;4.70;99.90
1766;DHT22;880;52.452;8.656;2023-11-22T16:02:10;4.60;99.90
1766;DHT22;880;52.452;8.656;2023-11-22T16:04:38;4.60;99.90
1766;DHT22;880;52.452;8.656;2023-11-22T16:07:05;4.60;99.90
1766;DHT22;880;52.452;8.656;2023-11-22T16:09:32;4.50;99.90
1766;DHT22;880;52.452;8.656;2023-11-22T16:12:00;4.50;99.90
1766;DHT22;880;52.452;8.656;2023-11-22T16:14:27;4.50;99.90
1766;DHT22;880;52.452;8.656;2023-11-22T16:16:55;4.50;99.90
1766;DHT22;880;52.452;8.656;2023-11-22T16:19:22;4.50;99.90
1766;DHT22;880;52.452;8.656;2023-11-22T16:21:49;4.50;99.90
1766;DHT22;880;52.452;8.656;2023-11-22T16:24:16;4.50;99.90
1766;DHT22;880;52.452;8.656;2023-11-22T16:26:43;4.50;99.90
1766;DHT22;880;52.452;8.656;2023-11-22T16:29:10;4.50;99.90
1766;DHT22;880;52.452;8.656;2023-11-22T16:31:42;4.50;99.90
1766;DHT22;880;52.452;8.656;2023-11-22T16:34:11;4.50;99.90
1766;DHT22;880;52.452;8.656;2023-11-22T16:36:38;4.50;99.90
1766;DHT22;880;52.452;8.656;2023-11-22T16:39:06;4.50;99.90
1766;DHT22;880;52.452;8.656;2023-11-22T16:41:51;4.40;99.90
1766;DHT22;880;52.452;8.656;2023-11-22T16:44:21;4.40;99.90
1766;DHT22;880;52.452;8.656;2023-11-22T16:46:49;4.40;99.90
1766;DHT22;880;52.452;8.656;2023-11-22T16:49:16;4.40;99.90